NWS Home NWS Lubbock West Texas Mesonet Latest Conditions as of 0535 PM, Tue Jan 16, 2018

Latest   N   C   S   Daily Sum   3hrΔ   24hrΔ   Soil Data 
Site Map   24hr Precip   72hr Precip   Google Plot


Station Time of Last Temp Dew Pt. RH Wind Direction Wind Speed Wind Gust Max Wind Max Temp Min Temp Max RH Min RH Altimeter 1HR Rain Today's Rain Solar Rad Wind Chill
Abernathy 5ENE  05:30 PM 29 2 30% N510 25 mph 28° @ 1235 AM 30 14 46 28 30.54" 0 0 81 23
Adrian 6WSW  05:30 PM 31 8 39% SW33 16 mph 242° @ 0120 PM 32 3 69 36 30.47" 0 0 97  
Aiken 3WSW  05:30 PM 28 0 29% NE66 25 mph 22° @ 0333 AM 29 12 45 27 30.55" 0 0 78 22
Amarillo 15NNW   05:30 PM 29 2 32% SE23 15 mph 14° @ 1209 AM 30 0 75 28 30.53" 0 0 94  
Amarillo 7SSE  05:30 PM 26 -1 31% NE23 17 mph 16° @ 0124 AM 28 3 65 28 30.53" 0 0 84  
Amarillo 9NNE  05:30 PM 25 0 32% E44 15 mph 22° @ 1239 AM 29 -1 80 28 30.54" 0 0 70  
Amherst 1NE  05:30 PM 31 4 30% SE12 20 mph 12° @ 0100 AM 32 15 42 30 30.52" 0 0 73  
Andrews 2E  05:30 PM 31 -3 23% E36 27 mph 42° @ 1215 AM 32 19 35 23 30.56" 0 0 51  
Anton 6SSW  05:30 PM 30 3 31% NW34 23 mph 17° @ 1250 AM 31 16 47 28 30.53" 0 0 93  
Aspermont 3NE  05:30 PM 27 -10 19% N810 27 mph 20° @ 1220 AM 30 12 43 18 30.66" 0 0 80 19
Big Bend NP - Persimmon Gap  05:30 PM 30 -9 17% NE1518 39 mph 61° @ 0406 AM 41 29 55 16 30.55" 0 0 15 19
Big Lake 1WNW  05:30 PM 23 -4 29% N810 32 mph 20° @ 1216 AM 28 21 37 27 30.61" 0 0 12 14
Bootleg 11WNW  05:30 PM 30 6 35% SW57 16 mph 242° @ 0326 PM 33 10 52 33 30.48" 0 0 77 24
Boys Ranch 1WSW  05:30 PM 29 4 35% E33 12 mph 59° @ 1252 AM 31 0 77 28 30.54" 0 0 101  
Brownfield 2S  05:30 PM 29 -2 26% N48 20 mph 27° @ 1205 AM 30 16 47 23 30.55" 0 0 91  
Canadian 6E  05:30 PM 21 -12 22% N45 25 mph 357° @ 0433 AM 24 -1 71 20 30.58" 0 0 50  
Caprock Canyons State Park  05:30 PM 28 -5 23% N56 24 mph 358° @ 0258 AM 30 10 62 20 30.60" 0 0 56  
Childress 2NNE  05:30 PM 26 -18 13% N68 24 mph 357° @ 1205 AM 28 4 66 12 30.64" 0 0 74 19
Clarendon 2WSW  05:30 PM 26 -7 23% N45 20 mph 359° @ 1100 AM 28 -3 77 20 30.57" 0 0 63  
Claude 12SW  05:30 PM 25 -2 30% NE44 20 mph 6° @ 1242 AM 27 3 68 28 30.53" 0 0 83  
Clyde 2WNW  05:30 PM 23 -5 28% N910 29 mph 9° @ 1205 AM 26 14 50 25 30.64" 0 0 72 13
Colorado City 5NW  05:30 PM 30 -6 20% NE68 31 mph 27° @ 0350 AM 32 17 42 19 30.63" 0 0 87 24
Coyanosa 2N  05:30 PM 29 -3 24% E1011 23 mph 30° @ 0201 AM 34 27 54 22 30.61" 0 0 24 20
Crowell 1E  05:30 PM 27 -12 17% NE1112 33 mph 13° @ 1209 AM 30 8 52 15 30.68" 0 0 76 17
Dell City  05:30 PM 31 3 30% SE1417 29 mph 17° @ 0226 AM 36 24 61 24 30.48" 0 0 67 21
Denver City 7WNW  05:30 PM 31 0 26% SE47 17 mph 47° @ 0110 PM 33 10 63 24 30.52" 0 0 110  
Dimmitt 2NE  05:30 PM 29 5 36% SW34 24 mph 13° @ 0425 AM 29 11 46 33 30.50" 0 0 100  
Dora NM 2SW  05:30 PM 33 4 29% S46 19 mph 35° @ 1205 AM 35 18 46 28 30.47" 0 0 79  
Dozier 3W  05:30 PM 26 -17 14% NE67 24 mph 360° @ 1013 AM 29 6 60 13 30.62" 0 0 73 19
Earth 9WSW  05:30 PM 28 4 36% NE55 20 mph 14° @ 0157 AM 31 15 44 30 30.52" 0 0 28  
Endee NM 2SW  05:30 PM 35 11 36% S34 18 mph 48° @ 0450 AM 37 9 59 34 30.47" 0 0 93  
Floydada 2NNE  05:30 PM 27 -2 27% N68 27 mph 14° @ 0305 AM 30 10 49 23 30.54" 0 0 68 20
Fluvanna 3WNW  05:30 PM 29 -6 21% NE810 29 mph 24° @ 0130 AM 31 13 49 21 30.58" 0 0 80 21
Fort Chadbourne  05:30 PM 27 -5 24% N68 32 mph 28° @ 1219 AM 31 18 40 21 30.63" 0 0 37 20
Fort Lancaster  05:30 PM 28 -5 23% N78 25 mph 6° @ 1212 AM 34 26 43 22 30.64" 0 0 24 21
Fort Lewis CO  05:30 PM 37 21 52% SW34 16 mph 67° @ 0626 AM 39 21 87 48 30.32" 0 0 136  
Fort McKavett  05:30 PM 24 -4 29% N1011 34 mph 19° @ 0155 AM 30 21 50 28 30.63" 0 0 24 14
Friona 2NE  05:30 PM 29 7 37% S68 19 mph 28° @ 0515 AM 31 12 51 34 30.49" 0 0 95 23
Gail 2ESE  05:30 PM 31 -4 21% NE68 24 mph 36° @ 0255 AM 33 16 39 20 30.58" 0 0 81 25
Goodlett 3W  05:30 PM 27 -17 14% N79 26 mph 2° @ 1205 AM 29 4 65 13 30.65" 0 0 70 20
Goodnight  05:30 PM 25 -3 29% N34 23 mph 345° @ 0851 AM 28 2 75 23 30.57" 0 0 57  
Graham 5SSW  05:30 PM 30 -3 24% NE810 20 mph 34° @ 0100 AM 31 14 48 22 30.57" 0 0 81 22
Guadalupe Mtns Natl Park  05:30 PM 21 -1 39% E78 27 mph 27° @ 0632 AM 23 16 90 25 30.42" 0 0 111 13
Guthrie 10WSW  05:30 PM 27 -11 18% N1012 31 mph 11° @ 0105 AM 29 9 47 17 30.63" 0 0 70 18
Happy 1E  05:30 PM 27 2 33% NE44 22 mph 14° @ 0423 AM 30 7 57 29 30.52" 0 0 95  
Hart 3N  05:30 PM 28 5 36% N46 23 mph 19° @ 0430 AM 30 11 48 31 30.51" 0 0 93  
Haskell 1NW  05:30 PM 26 -10 19% N1012 31 mph 19° @ 0125 AM 28 12 44 19 30.66" 0 0 78 16
Hereford 2NW  05:30 PM 31 5 32% SE56 19 mph 33° @ 0420 AM 32 9 49 31 30.49" 0 0 99  
Hobbs NM 5NW  05:30 PM 31 0 26% SE68 20 mph 40° @ 1201 AM 34 15 56 23 30.54" 0 0 111 25
Jayton 1SSE  05:30 PM 28 -9 20% NE610 24 mph 22° @ 0245 AM 30 12 48 17 30.63" 0 0 88 21
Junction 1SSW  05:30 PM 26 -4 27% N912 30 mph 21° @ 1242 AM 35 23 76 26 30.64" 0 0 11 17
Knox City 3NW  05:30 PM 28 -11 18% N710 29 mph 8° @ 1205 AM 30 12 46 17 30.68" 0 0 50 21
Lake Alan Henry 1NW  05:30 PM 31 -10 16% NE79 25 mph 43° @ 0147 AM 35 14 40 14 30.60" 0 0 81 24
Lamesa 2SE  05:30 PM 30 -3 24% N46 22 mph 27° @ 0105 AM 31 13 48 24 30.57" 0 0 80  
Lesley 2S  05:30 PM 30 -8 19% N33 17 mph 322° @ 1235 PM 32 5 64 17 30.62" 0 0 78  
Levelland 4S  05:30 PM 30 -1 26% NE12 22 mph 21° @ 1250 AM 30 17 51 25 30.54" 0 0 105  
Lomax 1SSE  05:30 PM 30 -3 24% NE46 27 mph 29° @ 0234 AM 30 19 35 22 30.60" 0 0 74  
Lubbock 3WNW TTU  05:30 PM 31 1 27% N58 18 mph 31° @ 1255 AM 32 17 36 22 30.55" 0 0 99 26
McCamey 1SSW  05:30 PM 27 -3 27% N56 26 mph 26° @ 0115 AM 32 24 38 25 30.63" 0 0 21 21
McLean 1E  05:30 PM 24 -17 16% N68 27 mph 349° @ 1005 AM 27 3 64 13 30.56" 0 0 41 17
Memphis 1NE  05:30 PM 28 -16 13% NE57 19 mph 0° @ 0220 AM 30 1 68 13 30.62" 0 0 53 22
Menard 2NW   05:30 PM 24 -4 29% N79 29 mph 25° @ 0224 AM 29 21 54 27 30.64" 0 0 14 16
Mertzon 3NNE  05:30 PM 25 -5 26% N67 28 mph 18° @ 0200 AM 29 21 34 25 30.65" 0 0 11 18
Morton 1ENE  05:30 PM 29 0 29% S34 22 mph 15° @ 1235 AM 31 18 39 27 30.52" 0 0 84  
Muleshoe 2SSW  05:30 PM 33 6 31% S23 16 mph 24° @ 0410 AM 33 16 47 31 30.51" 0 0 96  
New Home  05:30 PM 30 1 28% NE56 19 mph 335° @ 0215 PM 32 15 45 23 30.56" 0 0 94  
Northfield 1S  05:30 PM 28 -11 17% NE46 24 mph 3° @ 0315 AM 30 8 53 16 30.63" 0 0 63  
O'Donnell 1N  05:30 PM 31 -5 21% NE711 24 mph 36° @ 0310 AM 32 14 44 20 30.56" 0 0 75 24
Odell 4ENE  05:30 PM 25 -7 24% N67 23 mph 6° @ 0246 AM 28 4 68 19 30.69" 0 0 49 17
Olton 6S  05:30 PM 29 3 32% NW34 23 mph 16° @ 0200 AM 30 14 43 30 30.52" 0 0 84  
Paducah 10SW  05:30 PM 26 -10 21% N69 31 mph 14° @ 1220 AM 28 7 60 19 30.64" 0 0 58 19
Palo Duro 4E (JA Ranch)  05:30 PM 28 -5 24% N34 17 mph 8° @ 1159 AM 31 -2 77 19 30.59" 0 0 69  
Palo Duro Canyon SP Floor  05:30 PM 29 1 29% SE22 17 mph 330° @ 1231 PM 33 7 58 24 30.56" 0 0 24  
Palo Duro Canyon State Park Rim  05:30 PM 28 0 30% N00 19 mph 14° @ 0147 AM 29 5 60 27 30.54" 0 0 84  
Pampa 2E  05:30 PM 21 -8 27% N46 23 mph 345° @ 1240 PM 24 -2 82 23 30.55" 0 0 62  
Panhandle 1SSW  05:30 PM 23 -2 32% NW45 22 mph 0° @ 1026 AM 26 2 71 27 30.54" 0 0 70  
Plains 3N  05:30 PM 31 1 26% NE01 16 mph 30° @ 0115 AM 32 16 54 26 30.52" 0 0 81  
Plainview 1S  05:30 PM 29 1 30% NE46 23 mph 15° @ 0135 AM 30 12 48 29 30.53" 0 0 83  
Post 1NE  05:30 PM 32 -4 21% NE56 23 mph 23° @ 0200 PM 34 14 44 18 30.58" 0 0 76  
Ralls 1SE  05:30 PM 29 -3 25% NE79 30 mph 22° @ 1220 AM 31 14 41 22 30.56" 0 0 76 22
Reese Center  05:30 PM 31 1 28% NE34 23 mph 25° @ 0220 AM 31 16 54 24 30.54" 0 0 79  
Roaring Springs 3N  05:30 PM 26 -6 24% NE68 28 mph 15° @ 0225 AM 28 9 63 24 30.59" 0 0 62 19
San Angelo 7NW  05:30 PM 26 -8 22% NW24 23 mph 13° @ 0135 AM 29 21 30 19 30.65" 0 0 30  
Seagraves 1SW  05:30 PM 30 2 30% NE68 16 mph 11° @ 1230 PM 31 15 57 27 30.54" 0 0 82 24
Seminole 2NNE  05:30 PM 30 -1 26% E79 16 mph 33° @ 1210 AM 31 13 55 24 30.55" 0 0 100 23
Seymour 3NW  05:25 PM 27 -7 22% N1014 32 mph 5° @ 1245 AM 29 12 55 17 30.68" 0 0 80 17
Sierra Blanca 1SSE  05:30 PM 28 3 33% E1011 27 mph 101° @ 0724 AM 30 21 81 30 30.44" 0 0 53 19
Silverton 7ESE  05:30 PM 26 -7 24% NE57 23 mph 360° @ 0400 AM 28 7 55 23 30.56" 0 0 78 20
Slaton 2NE  05:30 PM 30 -2 25% NE68 22 mph 31° @ 0130 AM 31 15 46 22 30.55" 0 0 83 24
Snyder 3E  05:30 PM 29 -6 22% NE79 32 mph 23° @ 1215 AM 31 14 48 20 30.60" 0 0 66 22
Snyder 3SSW  05:30 PM 29 -5 23% NE810 29 mph 24° @ 0202 AM 31 15 46 20 30.61" 0 0 81 21
Spur 1W  05:30 PM 28 -8 21% NE1012 30 mph 35° @ 1210 AM 30 13 50 16 30.60" 0 0 73 19
St. Lawrence 5SW  05:30 PM 26 -6 24% NE68 33 mph 32° @ 1220 AM 27 20 32 23 30.60" 0 0 17 19
Sterling City 4WSW  05:30 PM 25 -8 23% NW01 28 mph 8° @ 1225 AM 27 19 34 22 30.62" 0 0 26  
Stinnett 1NNW  05:30 PM 23 -2 33% N22 20 mph 347° @ 0647 AM 26 0 74 28 30.54" 0 0 60  
Sundown 8WSW  05:30 PM 29 2 31% NE34 19 mph 22° @ 1245 AM 31 13 51 28 30.53" 0 0 72  
Sweetwater 11SW   05:30 PM 25 -6 25% NE1011 37 mph 29° @ 1218 AM 28 14 45 22 30.62" 0 0 52 15
Tahoka 3NNE  05:30 PM 30 -3 23% N78 20 mph 3° @ 0109 PM 33 14 41 19 30.55" 0 0 75 23
Tarzan 2WNW  05:30 PM 30 -1 25% NE66 28 mph 37° @ 1202 AM 31 18 40 24 30.58" 0 0 54 24
Tatum NM 2SW  05:30 PM 32 1 27% SE47 13 mph 25° @ 1220 AM 35 16 61 24 30.50" 0 0 111  
Throckmorton 1SW  05:30 PM 26 -5 25% N710 28 mph 17° @ 1243 AM 27 12 57 23 30.68" 0 0 69 18
Tulia 2ENE  05:30 PM 28 3 35% NE46 25 mph 4° @ 0430 AM 30 10 57 32 30.53" 0 0 83  
Turkey 2WSW  05:30 PM 28 -7 22% NE57 28 mph 2° @ 0410 AM 29 8 64 20 30.59" 0 0 71 22
Umbarger 3NNE  05:30 PM 31 6 34% SE11 17 mph 22° @ 0248 AM 32 4 65 31 30.51" 0 0 83  
Vigo Park  05:30 PM 26 -1 30% NE24 20 mph 18° @ 1241 AM 29 5 62 27 30.55" 0 0 80  
Wall 2E  05:30 PM 26 -4 26% N1011 31 mph 31° @ 1204 AM 29 21 45 25 30.66" 0 0 11 16
Weinert 2NNE  05:30 PM 26 -9 21% N810 31 mph 21° @ 1207 AM 28 12 46 20 30.67" 0 0 71 18
Welch  05:30 PM 30 -2 25% N45 19 mph 358° @ 1257 PM 31 14 47 22 30.57" 0 0 91  
White River Lake 6NW  05:30 PM 30 -3 22% NE710 25 mph 13° @ 1240 AM 33 12 46 18 30.57" 0 0 88 23
Wolfforth 6SSW  05:30 PM 31 0 26% NE58 23 mph 25° @ 0145 AM 32 15 45 23 30.54" 0 0 81 26

West Texas Mesonet Home   Site Map/Menu  NWS Lubbock Soil Data  Daily Summary Page  24hr Precip  72hr Precip  Google Plot